Time;durP1;ratioP1;P1;durP2;ratioP2;P2;SDS_P1;SDS_P2;PMS_P1;PMS_P2;Temp;Humidity;BMP_temperature;BMP_pressure;BME280_temperature;BME280_humidity;BME280_pressure;Samples;Min_cycle;Max_cycle;Signal;HPM_P1;HPM_P2
2022/03/27 00:00:29;;;;;;;36.27;14.67;;;;;;;;;;5061086;28;20290;-82
2022/03/27 00:02:58;;;;;;;38.37;16.27;;;;;;;;;;5056312;28;20283;-83
2022/03/27 00:05:25;;;;;;;29.90;14.47;;;;;;;;;;5060172;28;20879;-84
2022/03/27 00:07:52;;;;;;;33.00;15.03;;;;;;;;;;5055965;28;20230;-81
2022/03/27 00:10:19;;;;;;;36.50;15.37;;;;;;;;;;5061511;28;20256;-83
2022/03/27 00:12:46;;;;;;;34.23;15.80;;;;;;;;;;5062065;28;20308;-84
2022/03/27 00:15:13;;;;;;;36.97;15.17;;;;;;;;;;5056725;28;20699;-84
2022/03/27 00:17:41;;;;;;;33.57;15.00;;;;;;;;;;5058345;28;20253;-85
2022/03/27 00:20:12;;;;;;;30.80;14.93;;;;;;;;;;5062969;28;20281;-81
2022/03/27 00:22:39;;;;;;;36.50;15.47;;;;;;;;;;5057942;28;20264;-83
2022/03/27 00:25:07;;;;;;;40.27;15.73;;;;;;;;;;5057651;28;20218;-83
2022/03/27 00:27:35;;;;;;;35.20;15.23;;;;;;;;;;5062976;28;20271;-84
2022/03/27 00:30:03;;;;;;;42.10;15.13;;;;;;;;;;5060718;28;20260;-84
2022/03/27 00:32:30;;;;;;;35.87;15.40;;;;;;;;;;5077659;28;20230;-82
2022/03/27 00:34:57;;;;;;;33.17;15.10;;;;;;;;;;5073832;28;20207;-81
2022/03/27 00:37:27;;;;;;;40.73;14.73;;;;;;;;;;5069113;28;20191;-83
2022/03/27 00:39:54;;;;;;;32.20;15.10;;;;;;;;;;5062309;28;20203;-85
2022/03/27 00:42:21;;;;;;;37.33;15.10;;;;;;;;;;5063989;28;20246;-83
2022/03/27 00:44:48;;;;;;;36.07;15.37;;;;;;;;;;5063414;28;20207;-81
2022/03/27 00:47:16;;;;;;;33.83;14.60;;;;;;;;;;5065483;28;20619;-83
2022/03/27 00:49:43;;;;;;;36.23;14.93;;;;;;;;;;5065066;28;20195;-84
2022/03/27 00:52:10;;;;;;;36.50;15.73;;;;;;;;;;5061945;28;20288;-85
2022/03/27 00:54:39;;;;;;;32.30;14.83;;;;;;;;;;5070943;28;20295;-83
2022/03/27 00:57:06;;;;;;;37.23;14.37;;;;;;;;;;5069916;28;20299;-85
2022/03/27 00:59:34;;;;;;;37.90;14.60;;;;;;;;;;5053637;28;20206;-83
2022/03/27 01:02:01;;;;;;;35.43;15.27;;;;;;;;;;5057402;28;20700;-84
2022/03/27 01:04:29;;;;;;;36.70;15.30;;;;;;;;;;5058397;28;20253;-85
2022/03/27 01:06:56;;;;;;;35.33;15.10;;;;;;;;;;5059008;28;20204;-84
2022/03/27 01:09:38;;;;;;;38.00;14.90;;;;;;;;;;5056949;28;20240;-83
2022/03/27 01:12:15;;;;;;;35.30;15.07;;;;;;;;;;5058227;28;20826;-84
2022/03/27 01:14:44;;;;;;;35.77;15.03;;;;;;;;;;5055672;28;20235;-82
2022/03/27 01:17:12;;;;;;;31.13;13.97;;;;;;;;;;5056207;28;20238;-84
2022/03/27 01:19:41;;;;;;;34.73;15.17;;;;;;;;;;5054504;28;20667;-83
2022/03/27 01:22:11;;;;;;;34.67;15.43;;;;;;;;;;5054306;28;20234;-83
2022/03/27 01:24:39;;;;;;;35.90;14.27;;;;;;;;;;5051285;28;20221;-84
2022/03/27 01:27:06;;;;;;;39.00;14.90;;;;;;;;;;5058346;28;20724;-83
2022/03/27 01:29:34;;;;;;;30.13;14.23;;;;;;;;;;5059090;28;20617;-83
2022/03/27 01:32:01;;;;;;;32.47;13.97;;;;;;;;;;5056725;28;20238;-84
2022/03/27 01:34:29;;;;;;;30.73;14.30;;;;;;;;;;5054775;28;20221;-84
2022/03/27 01:36:56;;;;;;;33.33;14.07;;;;;;;;;;5053236;28;20767;-83
2022/03/27 01:39:24;;;;;;;34.23;13.63;;;;;;;;;;5054973;28;20207;-85
2022/03/27 01:41:52;;;;;;;29.53;13.37;;;;;;;;;;5056895;28;20199;-84
2022/03/27 01:44:20;;;;;;;33.10;14.17;;;;;;;;;;5051575;28;20195;-82
2022/03/27 01:46:48;;;;;;;33.47;14.77;;;;;;;;;;5051928;28;20596;-84
2022/03/27 01:49:16;;;;;;;32.27;14.47;;;;;;;;;;5054131;28;20207;-83
2022/03/27 01:51:44;;;;;;;32.00;14.50;;;;;;;;;;5053430;28;20226;-82
2022/03/27 01:54:12;;;;;;;29.70;13.10;;;;;;;;;;5053037;28;20255;-83
2022/03/27 01:56:41;;;;;;;31.33;13.83;;;;;;;;;;5060302;28;20218;-83
2022/03/27 01:59:08;;;;;;;33.70;14.00;;;;;;;;;;5053147;28;20289;-83
2022/03/27 02:01:36;;;;;;;37.70;14.17;;;;;;;;;;5052765;28;20212;-84
2022/03/27 02:04:03;;;;;;;33.60;13.77;;;;;;;;;;5058558;28;20210;-82
2022/03/27 02:06:31;;;;;;;31.43;13.13;;;;;;;;;;5054385;28;20208;-85
2022/03/27 02:09:00;;;;;;;29.20;13.50;;;;;;;;;;5057773;28;20230;-84
2022/03/27 02:11:27;;;;;;;31.53;12.83;;;;;;;;;;5058779;28;20252;-81
2022/03/27 02:13:56;;;;;;;35.03;13.43;;;;;;;;;;5059050;28;20229;-85
2022/03/27 02:16:23;;;;;;;36.10;13.13;;;;;;;;;;5052781;28;20213;-84
2022/03/27 02:18:50;;;;;;;34.23;14.20;;;;;;;;;;5059219;28;20211;-85
2022/03/27 02:21:17;;;;;;;31.20;13.37;;;;;;;;;;5051682;28;20302;-83
2022/03/27 02:23:45;;;;;;;30.57;12.87;;;;;;;;;;5055067;28;20685;-84
2022/03/27 02:26:12;;;;;;;30.60;13.00;;;;;;;;;;5055152;28;20299;-83
2022/03/27 02:28:40;;;;;;;30.57;12.43;;;;;;;;;;5056006;28;20568;-84
2022/03/27 02:31:09;;;;;;;33.07;12.77;;;;;;;;;;5055608;28;20321;-84
2022/03/27 02:33:36;;;;;;;33.30;13.43;;;;;;;;;;5059089;28;20246;-84
2022/03/27 02:36:04;;;;;;;32.27;13.03;;;;;;;;;;5050055;28;20206;-83
2022/03/27 02:38:31;;;;;;;30.73;12.03;;;;;;;;;;5054531;28;20246;-85
2022/03/27 02:40:58;;;;;;;28.77;12.43;;;;;;;;;;5054234;28;20683;-83
2022/03/27 02:43:25;;;;;;;33.17;13.07;;;;;;;;;;5055135;28;20228;-81
2022/03/27 02:45:54;;;;;;;31.93;12.63;;;;;;;;;;5062485;28;20221;-83
2022/03/27 02:48:23;;;;;;;33.40;11.93;;;;;;;;;;5056251;28;20224;-84
2022/03/27 02:50:50;;;;;;;26.13;11.90;;;;;;;;;;5055096;28;20212;-82
2022/03/27 02:53:17;;;;;;;31.83;12.00;;;;;;;;;;5064974;28;20221;-83
2022/03/27 02:55:45;;;;;;;37.67;12.80;;;;;;;;;;5058941;28;20202;-81
2022/03/27 02:58:12;;;;;;;32.03;13.73;;;;;;;;;;5056227;28;20244;-83
2022/03/27 03:00:41;;;;;;;29.63;11.47;;;;;;;;;;5053587;28;20274;-84
2022/03/27 03:03:08;;;;;;;34.93;12.77;;;;;;;;;;5057340;28;20227;-83
2022/03/27 03:05:38;;;;;;;33.67;13.03;;;;;;;;;;5057864;28;20241;-82
2022/03/27 03:08:06;;;;;;;33.80;12.37;;;;;;;;;;5059120;28;20210;-83
2022/03/27 03:10:34;;;;;;;28.90;12.20;;;;;;;;;;5058229;28;20285;-84
2022/03/27 03:13:01;;;;;;;33.53;12.53;;;;;;;;;;5058751;28;20254;-85
2022/03/27 03:15:28;;;;;;;27.50;11.27;;;;;;;;;;5064315;28;20310;-85
2022/03/27 03:17:57;;;;;;;32.40;13.27;;;;;;;;;;5057348;28;20288;-81
2022/03/27 03:20:25;;;;;;;32.03;12.70;;;;;;;;;;5052920;28;20293;-84
2022/03/27 03:22:54;;;;;;;34.50;12.37;;;;;;;;;;5057565;28;20228;-82
2022/03/27 03:25:21;;;;;;;35.43;13.37;;;;;;;;;;5053876;28;20215;-84
2022/03/27 03:27:48;;;;;;;31.93;12.30;;;;;;;;;;5058821;28;20261;-81
2022/03/27 03:30:17;;;;;;;24.70;10.43;;;;;;;;;;5075952;28;20730;-82
2022/03/27 03:32:44;;;;;;;32.63;12.70;;;;;;;;;;5059073;28;20234;-84
2022/03/27 03:35:11;;;;;;;32.17;11.70;;;;;;;;;;5052135;28;20789;-84
2022/03/27 03:37:39;;;;;;;33.03;12.67;;;;;;;;;;5051631;28;20260;-84
2022/03/27 03:40:09;;;;;;;31.23;12.37;;;;;;;;;;5054820;28;20233;-81
2022/03/27 03:42:36;;;;;;;34.27;12.70;;;;;;;;;;5049978;28;20222;-82
2022/03/27 03:45:04;;;;;;;30.20;12.07;;;;;;;;;;5054793;28;20215;-82
2022/03/27 03:47:31;;;;;;;35.17;12.47;;;;;;;;;;5051971;28;20216;-81
2022/03/27 03:49:58;;;;;;;31.03;12.40;;;;;;;;;;5059925;28;20207;-83
2022/03/27 03:52:26;;;;;;;32.17;12.37;;;;;;;;;;5057856;28;20325;-84
2022/03/27 03:54:53;;;;;;;35.90;12.37;;;;;;;;;;5059841;28;20221;-84
2022/03/27 03:57:24;;;;;;;28.60;11.20;;;;;;;;;;5054637;28;20202;-83
2022/03/27 03:59:52;;;;;;;25.40;11.13;;;;;;;;;;5056202;28;20640;-83
2022/03/27 04:02:19;;;;;;;29.13;11.50;;;;;;;;;;5053525;28;20310;-82
2022/03/27 04:04:46;;;;;;;31.13;12.27;;;;;;;;;;5063030;28;20206;-82
2022/03/27 04:07:14;;;;;;;30.80;12.77;;;;;;;;;;5053110;28;20305;-83
2022/03/27 04:09:41;;;;;;;33.67;12.27;;;;;;;;;;5051206;28;20681;-83
2022/03/27 04:12:09;;;;;;;28.47;12.00;;;;;;;;;;5056277;28;20254;-82
2022/03/27 04:14:39;;;;;;;28.53;11.77;;;;;;;;;;5060667;28;20225;-83
2022/03/27 04:17:06;;;;;;;32.97;12.53;;;;;;;;;;5053470;28;20705;-84
2022/03/27 04:19:33;;;;;;;26.80;12.03;;;;;;;;;;5056612;28;20221;-83
2022/03/27 04:22:00;;;;;;;26.93;12.07;;;;;;;;;;5053931;28;20232;-83
2022/03/27 04:24:28;;;;;;;27.63;11.87;;;;;;;;;;5062310;28;20210;-84
2022/03/27 04:26:55;;;;;;;33.30;12.73;;;;;;;;;;5054396;28;20210;-83
2022/03/27 04:29:22;;;;;;;28.87;12.53;;;;;;;;;;5057172;28;20226;-84
2022/03/27 04:31:52;;;;;;;29.33;11.37;;;;;;;;;;5051545;28;20293;-84
2022/03/27 04:34:19;;;;;;;32.07;11.57;;;;;;;;;;5063205;28;20733;-84
2022/03/27 04:36:46;;;;;;;29.87;11.80;;;;;;;;;;5054854;28;20678;-85
2022/03/27 04:39:14;;;;;;;35.43;12.20;;;;;;;;;;5055819;28;20254;-83
2022/03/27 04:41:41;;;;;;;34.93;12.80;;;;;;;;;;5056922;28;20293;-84
2022/03/27 04:44:08;;;;;;;29.40;12.10;;;;;;;;;;5056114;28;20199;-84
2022/03/27 04:46:35;;;;;;;35.60;12.33;;;;;;;;;;5058252;28;20211;-83
2022/03/27 04:49:04;;;;;;;32.27;12.87;;;;;;;;;;5053301;28;20200;-83
2022/03/27 04:51:32;;;;;;;27.80;11.97;;;;;;;;;;5060018;28;20797;-83
2022/03/27 04:53:59;;;;;;;27.60;11.30;;;;;;;;;;5061266;28;20671;-85
2022/03/27 04:56:26;;;;;;;27.70;11.43;;;;;;;;;;5058618;28;20269;-85
2022/03/27 04:58:54;;;;;;;28.07;10.50;;;;;;;;;;5058219;28;20238;-85
2022/03/27 05:01:21;;;;;;;26.37;10.20;;;;;;;;;;5057298;28;20281;-84
2022/03/27 05:03:48;;;;;;;25.40;10.50;;;;;;;;;;5060538;28;21123;-82
2022/03/27 05:06:17;;;;;;;26.20;10.70;;;;;;;;;;5058268;28;20210;-85
2022/03/27 05:08:45;;;;;;;31.73;10.73;;;;;;;;;;5058090;28;20281;-82
2022/03/27 05:11:12;;;;;;;31.77;13.57;;;;;;;;;;5057152;28;20526;-82
2022/03/27 05:13:39;;;;;;;33.00;13.20;;;;;;;;;;5061790;28;20226;-85
2022/03/27 05:16:06;;;;;;;34.37;12.70;;;;;;;;;;5059376;28;20283;-84
2022/03/27 05:18:34;;;;;;;29.00;11.80;;;;;;;;;;5058783;28;20219;-85
2022/03/27 05:21:01;;;;;;;28.17;10.63;;;;;;;;;;5058975;28;21014;-83
2022/03/27 05:23:30;;;;;;;29.70;11.20;;;;;;;;;;5056134;28;20230;-83
2022/03/27 05:25:57;;;;;;;32.63;11.20;;;;;;;;;;5059222;28;20194;-84
2022/03/27 05:28:24;;;;;;;26.80;11.00;;;;;;;;;;5059125;28;20213;-85
2022/03/27 05:30:52;;;;;;;28.10;11.63;;;;;;;;;;5054028;28;20309;-84
2022/03/27 05:33:20;;;;;;;29.47;11.23;;;;;;;;;;5057503;28;20226;-83
2022/03/27 05:35:47;;;;;;;33.87;11.67;;;;;;;;;;5053990;28;20234;-82
2022/03/27 05:38:14;;;;;;;30.40;11.27;;;;;;;;;;5057107;28;20799;-85
2022/03/27 05:40:45;;;;;;;26.60;11.37;;;;;;;;;;5055106;28;20202;-82
2022/03/27 05:43:12;;;;;;;33.23;13.03;;;;;;;;;;5058794;28;20236;-82
2022/03/27 05:45:41;;;;;;;33.10;12.37;;;;;;;;;;5059247;28;20213;-84
2022/03/27 05:48:08;;;;;;;32.53;11.73;;;;;;;;;;5054237;28;20263;-84
2022/03/27 05:50:36;;;;;;;31.67;12.20;;;;;;;;;;5052288;28;20206;-84
2022/03/27 05:53:03;;;;;;;30.10;11.30;;;;;;;;;;5048521;28;20230;-81
2022/03/27 05:55:30;;;;;;;28.00;11.80;;;;;;;;;;5057536;28;20289;-82
2022/03/27 05:58:00;;;;;;;33.40;11.63;;;;;;;;;;5049687;28;20232;-82
2022/03/27 06:00:27;;;;;;;25.33;11.47;;;;;;;;;;5049228;28;20203;-81
2022/03/27 06:02:55;;;;;;;28.63;11.90;;;;;;;;;;5052851;28;20223;-82
2022/03/27 06:05:23;;;;;;;32.90;11.60;;;;;;;;;;5054856;28;20207;-82
2022/03/27 06:07:51;;;;;;;28.20;11.90;;;;;;;;;;5054887;28;20195;-83
2022/03/27 06:10:21;;;;;;;27.77;11.67;;;;;;;;;;5050797;28;20213;-82
2022/03/27 06:12:48;;;;;;;27.53;11.13;;;;;;;;;;5051190;28;20562;-82
2022/03/27 06:15:17;;;;;;;26.67;11.53;;;;;;;;;;5051228;28;20203;-82
2022/03/27 06:17:44;;;;;;;26.00;10.97;;;;;;;;;;5051140;28;20230;-83
2022/03/27 06:20:13;;;;;;;24.50;11.17;;;;;;;;;;5054371;28;20289;-84
2022/03/27 06:22:40;;;;;;;26.20;10.80;;;;;;;;;;5050084;28;20225;-85
2022/03/27 06:25:08;;;;;;;21.93;9.63;;;;;;;;;;5048211;28;20218;-84
2022/03/27 06:27:36;;;;;;;18.10;9.43;;;;;;;;;;5049146;28;20679;-86
2022/03/27 06:30:04;;;;;;;20.40;10.50;;;;;;;;;;5046538;28;20265;-84
2022/03/27 06:32:32;;;;;;;22.20;9.97;;;;;;;;;;5046815;28;20227;-85
2022/03/27 06:34:59;;;;;;;21.13;10.07;;;;;;;;;;5049581;28;20270;-82
2022/03/27 06:37:27;;;;;;;25.00;10.63;;;;;;;;;;5055866;28;20293;-84
2022/03/27 06:39:56;;;;;;;21.07;10.60;;;;;;;;;;5051738;28;20214;-85
2022/03/27 06:42:25;;;;;;;18.83;9.43;;;;;;;;;;5050116;28;20230;-86
2022/03/27 06:44:54;;;;;;;20.33;10.00;;;;;;;;;;5049410;28;20208;-85
2022/03/27 06:47:22;;;;;;;21.30;10.60;;;;;;;;;;5051216;28;20225;-84
2022/03/27 06:49:52;;;;;;;19.67;10.67;;;;;;;;;;5053822;28;20290;-83
2022/03/27 06:52:20;;;;;;;20.77;10.50;;;;;;;;;;5053428;28;20234;-85
2022/03/27 06:54:49;;;;;;;21.53;11.67;;;;;;;;;;5052153;28;20282;-84
2022/03/27 06:57:17;;;;;;;19.80;11.20;;;;;;;;;;5045475;28;20259;-85
2022/03/27 07:05:15;;;;;;;20.97;10.67;;;;;;;;;;5057185;28;20205;-84
2022/03/27 07:07:43;;;;;;;17.10;10.27;;;;;;;;;;5053180;28;20214;-83
2022/03/27 07:10:11;;;;;;;18.27;10.63;;;;;;;;;;5054307;28;20249;-86
2022/03/27 07:12:38;;;;;;;24.37;12.00;;;;;;;;;;5045506;28;20506;-84
2022/03/27 07:15:06;;;;;;;21.80;10.93;;;;;;;;;;5042939;28;20563;-85
2022/03/27 07:17:33;;;;;;;18.60;10.77;;;;;;;;;;5047049;28;20241;-83
2022/03/27 07:20:00;;;;;;;19.33;10.43;;;;;;;;;;5049592;28;20261;-84
2022/03/27 07:22:29;;;;;;;19.93;10.70;;;;;;;;;;5044065;28;20234;-85
2022/03/27 07:24:56;;;;;;;21.70;11.50;;;;;;;;;;5048309;28;20276;-85
2022/03/27 07:27:25;;;;;;;20.80;11.27;;;;;;;;;;5054331;28;20217;-84
2022/03/27 07:29:52;;;;;;;22.07;11.63;;;;;;;;;;5046980;28;20999;-85
2022/03/27 07:32:19;;;;;;;20.00;11.27;;;;;;;;;;5048454;28;20250;-83
2022/03/27 07:34:47;;;;;;;20.57;11.53;;;;;;;;;;5042747;28;20223;-83
2022/03/27 07:37:14;;;;;;;25.97;10.67;;;;;;;;;;5042742;28;20203;-83
2022/03/27 07:39:42;;;;;;;20.47;11.20;;;;;;;;;;5048382;28;20222;-82
2022/03/27 07:42:10;;;;;;;20.93;10.67;;;;;;;;;;5047391;28;20234;-85
2022/03/27 07:44:37;;;;;;;23.87;11.87;;;;;;;;;;5048804;28;20217;-86
2022/03/27 07:47:16;;;;;;;20.97;10.97;;;;;;;;;;5050848;28;20204;-84
2022/03/27 07:49:45;;;;;;;19.23;11.07;;;;;;;;;;5048754;28;20206;-85
2022/03/27 07:52:12;;;;;;;22.07;11.77;;;;;;;;;;5061783;28;20226;-84
2022/03/27 07:54:41;;;;;;;18.97;11.13;;;;;;;;;;5057949;28;20265;-84
2022/03/27 07:57:10;;;;;;;22.77;11.23;;;;;;;;;;5056784;28;20203;-85
2022/03/27 07:59:38;;;;;;;22.40;11.63;;;;;;;;;;5052596;28;20663;-84
2022/03/27 08:02:08;;;;;;;22.30;11.47;;;;;;;;;;5058860;28;20286;-85
2022/03/27 08:04:35;;;;;;;22.90;12.07;;;;;;;;;;5058384;28;20242;-84
2022/03/27 08:07:04;;;;;;;21.70;11.23;;;;;;;;;;5055237;28;20247;-85
2022/03/27 08:09:33;;;;;;;22.27;11.27;;;;;;;;;;5058408;28;20594;-85
2022/03/27 08:12:00;;;;;;;22.47;12.07;;;;;;;;;;5055283;28;20309;-85
2022/03/27 08:14:31;;;;;;;23.17;11.60;;;;;;;;;;5056248;28;20228;-85
2022/03/27 08:16:58;;;;;;;20.77;11.70;;;;;;;;;;5056897;28;20241;-84
2022/03/27 08:19:28;;;;;;;24.03;13.00;;;;;;;;;;5059865;28;20222;-85
2022/03/27 08:21:55;;;;;;;21.63;11.77;;;;;;;;;;5062692;28;20207;-85
2022/03/27 08:24:23;;;;;;;21.53;11.87;;;;;;;;;;5055050;28;20643;-84
2022/03/27 08:27:00;;;;;;;23.03;12.37;;;;;;;;;;5049378;28;20206;-85
2022/03/27 08:29:30;;;;;;;21.80;11.93;;;;;;;;;;5059400;28;20201;-85
2022/03/27 08:31:59;;;;;;;23.37;12.57;;;;;;;;;;5055372;28;20218;-85
2022/03/27 08:34:28;;;;;;;26.27;12.47;;;;;;;;;;5061087;28;20243;-84
2022/03/27 08:36:56;;;;;;;23.53;12.50;;;;;;;;;;5063845;28;20694;-83
2022/03/27 08:39:23;;;;;;;25.67;12.93;;;;;;;;;;5069137;28;20204;-83
2022/03/27 08:41:51;;;;;;;20.90;11.70;;;;;;;;;;5067565;28;20204;-85
2022/03/27 08:44:19;;;;;;;21.97;12.10;;;;;;;;;;5057199;28;20231;-85
2022/03/27 08:46:48;;;;;;;17.30;10.63;;;;;;;;;;5056267;28;20629;-84
2022/03/27 08:49:29;;;;;;;23.37;12.30;;;;;;;;;;5059551;28;20218;-84
2022/03/27 08:51:57;;;;;;;20.83;11.10;;;;;;;;;;5056628;28;21897;-84
2022/03/27 08:54:26;;;;;;;21.50;11.27;;;;;;;;;;5051759;28;20230;-85
2022/03/27 08:56:59;;;;;;;18.43;11.30;;;;;;;;;;5047736;28;20218;-84
2022/03/27 08:59:26;;;;;;;19.83;11.57;;;;;;;;;;5050479;28;20212;-83
2022/03/27 09:01:55;;;;;;;17.63;11.10;;;;;;;;;;5052777;28;20234;-84
2022/03/27 09:04:22;;;;;;;20.73;11.20;;;;;;;;;;5050618;28;20238;-84
2022/03/27 09:06:49;;;;;;;22.10;11.37;;;;;;;;;;5052463;28;20307;-84
2022/03/27 09:09:17;;;;;;;17.67;10.07;;;;;;;;;;5056142;28;20231;-82
2022/03/27 09:11:44;;;;;;;19.13;11.00;;;;;;;;;;5054723;28;20241;-84
2022/03/27 09:14:12;;;;;;;19.33;10.97;;;;;;;;;;5057858;28;20223;-83
2022/03/27 09:16:59;;;;;;;22.17;11.47;;;;;;;;;;5045447;28;20230;-84
2022/03/27 09:19:34;;;;;;;21.07;10.17;;;;;;;;;;5056239;28;20214;-83
2022/03/27 09:22:04;;;;;;;18.80;10.10;;;;;;;;;;5057636;28;20217;-84
2022/03/27 09:24:35;;;;;;;18.37;9.70;;;;;;;;;;5054471;28;20270;-82
2022/03/27 09:27:02;;;;;;;17.83;9.20;;;;;;;;;;5050420;28;20215;-84
2022/03/27 09:29:29;;;;;;;18.80;9.20;;;;;;;;;;5055898;28;20237;-83
2022/03/27 09:32:00;;;;;;;20.33;10.40;;;;;;;;;;5047642;28;20257;-83
2022/03/27 09:34:27;;;;;;;16.07;9.00;;;;;;;;;;5042439;28;20219;-82
2022/03/27 09:36:56;;;;;;;21.57;9.87;;;;;;;;;;5053456;28;20274;-82
2022/03/27 09:39:24;;;;;;;18.47;9.73;;;;;;;;;;5045439;28;20215;-81
2022/03/27 09:41:53;;;;;;;16.20;8.77;;;;;;;;;;5053469;28;20199;-83
2022/03/27 09:44:22;;;;;;;16.63;9.10;;;;;;;;;;5052799;28;20225;-84
2022/03/27 09:46:57;;;;;;;16.83;8.87;;;;;;;;;;5043465;28;20222;-83
2022/03/27 09:49:26;;;;;;;18.77;8.50;;;;;;;;;;5053128;28;20204;-84
2022/03/27 09:51:56;;;;;;;15.97;7.90;;;;;;;;;;5055000;28;20274;-83
2022/03/27 09:54:24;;;;;;;12.93;7.53;;;;;;;;;;5060207;28;20224;-84
2022/03/27 09:56:51;;;;;;;13.83;7.70;;;;;;;;;;5058450;28;20205;-84
2022/03/27 09:59:31;;;;;;;17.10;7.83;;;;;;;;;;5051824;28;20204;-87
2022/03/27 10:02:13;;;;;;;13.10;6.83;;;;;;;;;;5053711;28;20324;-85
2022/03/27 10:04:52;;;;;;;13.17;7.47;;;;;;;;;;5054434;28;20570;-85
2022/03/27 10:07:22;;;;;;;12.93;6.90;;;;;;;;;;5061185;28;20204;-84
2022/03/27 10:09:51;;;;;;;11.93;6.90;;;;;;;;;;5072041;28;20207;-83
2022/03/27 10:12:18;;;;;;;11.30;6.17;;;;;;;;;;5074682;28;20215;-82
2022/03/27 10:14:47;;;;;;;14.20;6.60;;;;;;;;;;5063493;28;20229;-84
2022/03/27 10:17:15;;;;;;;12.93;6.33;;;;;;;;;;5063836;28;20206;-84
2022/03/27 10:19:46;;;;;;;11.33;5.60;;;;;;;;;;5061003;28;20234;-84
2022/03/27 10:22:15;;;;;;;11.90;6.00;;;;;;;;;;5062629;28;20237;-85
2022/03/27 10:24:46;;;;;;;11.47;5.97;;;;;;;;;;5052861;28;20218;-85
2022/03/27 10:27:14;;;;;;;12.00;6.80;;;;;;;;;;5056965;28;20236;-84
2022/03/27 10:29:42;;;;;;;12.40;6.90;;;;;;;;;;5059838;28;20294;-84
2022/03/27 10:32:11;;;;;;;11.80;6.43;;;;;;;;;;5058220;28;20226;-85
2022/03/27 10:34:43;;;;;;;13.63;6.60;;;;;;;;;;5058142;28;20339;-85
2022/03/27 10:37:13;;;;;;;13.50;6.90;;;;;;;;;;5060353;28;20261;-85
2022/03/27 10:39:45;;;;;;;13.83;6.30;;;;;;;;;;5063571;28;20214;-83
2022/03/27 10:42:16;;;;;;;13.23;7.43;;;;;;;;;;5058558;28;20269;-85
2022/03/27 10:44:45;;;;;;;14.23;6.93;;;;;;;;;;5058309;28;20199;-84
2022/03/27 10:47:13;;;;;;;13.90;7.53;;;;;;;;;;5061466;28;20206;-83
2022/03/27 10:49:40;;;;;;;12.20;6.93;;;;;;;;;;5060535;28;20671;-82
2022/03/27 10:52:09;;;;;;;14.70;7.77;;;;;;;;;;5056260;28;20615;-84
2022/03/27 10:54:51;;;;;;;14.03;7.60;;;;;;;;;;5059972;28;20226;-83
2022/03/27 10:57:31;;;;;;;16.80;7.87;;;;;;;;;;5056607;28;20281;-82
2022/03/27 10:59:58;;;;;;;14.90;7.40;;;;;;;;;;5058256;28;20206;-83
2022/03/27 11:02:45;;;;;;;12.77;6.63;;;;;;;;;;5055569;28;20226;-84
2022/03/27 11:05:27;;;;;;;12.50;6.43;;;;;;;;;;5061982;28;20209;-83
2022/03/27 11:08:14;;;;;;;10.97;6.10;;;;;;;;;;5059989;28;20696;-83
2022/03/27 11:10:42;;;;;;;10.07;5.87;;;;;;;;;;5057627;28;20210;-83
2022/03/27 11:13:27;;;;;;;10.23;5.93;;;;;;;;;;5061401;28;20250;-83
2022/03/27 11:16:05;;;;;;;11.70;6.17;;;;;;;;;;5039716;28;20226;-84
2022/03/27 11:18:36;;;;;;;12.80;5.73;;;;;;;;;;5057271;28;20206;-82
2022/03/27 11:21:03;;;;;;;11.10;6.47;;;;;;;;;;5056497;28;20231;-84
2022/03/27 11:23:36;;;;;;;9.80;5.87;;;;;;;;;;5053684;28;20699;-85
2022/03/27 11:26:04;;;;;;;11.47;6.17;;;;;;;;;;5060313;28;20242;-85
2022/03/27 11:28:44;;;;;;;9.00;5.60;;;;;;;;;;5062834;28;20220;-85
2022/03/27 11:31:33;;;;;;;15.10;6.10;;;;;;;;;;5058030;28;20214;-85
2022/03/27 11:34:18;;;;;;;10.20;5.87;;;;;;;;;;5059068;28;20257;-85
2022/03/27 11:36:47;;;;;;;9.33;5.60;;;;;;;;;;5057921;28;20213;-83
2022/03/27 11:39:15;;;;;;;9.13;5.03;;;;;;;;;;5060684;28;20675;-84
2022/03/27 11:41:45;;;;;;;9.77;5.40;;;;;;;;;;5071139;28;20203;-82
2022/03/27 11:47:11;;;;;;;9.47;5.33;;;;;;;;;;5062614;28;20291;-84
2022/03/27 11:49:41;;;;;;;12.13;5.67;;;;;;;;;;5064593;28;20203;-84
2022/03/27 11:52:09;;;;;;;10.03;5.40;;;;;;;;;;5053523;28;20737;-82
2022/03/27 11:54:37;;;;;;;10.43;5.27;;;;;;;;;;5056910;28;20498;-84
2022/03/27 11:57:05;;;;;;;7.80;4.67;;;;;;;;;;5058324;28;20269;-84
2022/03/27 11:59:32;;;;;;;10.73;5.50;;;;;;;;;;5061962;28;20751;-84
2022/03/27 12:02:00;;;;;;;7.57;4.90;;;;;;;;;;5061218;28;20230;-84
2022/03/27 12:04:27;;;;;;;10.00;5.43;;;;;;;;;;5057989;28;20206;-84
2022/03/27 12:06:59;;;;;;;10.70;5.60;;;;;;;;;;5061711;28;20630;-84
2022/03/27 12:09:27;;;;;;;10.13;5.27;;;;;;;;;;5061228;28;20294;-84
2022/03/27 12:12:10;;;;;;;8.70;5.33;;;;;;;;;;5064157;28;20578;-84
2022/03/27 12:14:51;;;;;;;8.17;5.17;;;;;;;;;;5059407;28;20694;-83
2022/03/27 12:17:18;;;;;;;9.00;5.37;;;;;;;;;;5060824;28;20218;-84
2022/03/27 12:19:57;;;;;;;8.67;5.37;;;;;;;;;;5054953;28;20222;-84
2022/03/27 12:22:34;;;;;;;8.67;4.70;;;;;;;;;;5065210;28;20230;-82
2022/03/27 12:25:01;;;;;;;7.50;4.80;;;;;;;;;;5057027;28;20214;-84
2022/03/27 12:30:13;;;;;;;8.30;4.23;;;;;;;;;;5057841;28;20205;-84
2022/03/27 12:32:40;;;;;;;8.80;4.50;;;;;;;;;;5057660;28;21002;-82
2022/03/27 12:35:08;;;;;;;7.80;4.67;;;;;;;;;;5054964;28;20228;-82
2022/03/27 12:37:44;;;;;;;8.57;4.50;;;;;;;;;;5054478;28;20218;-83
2022/03/27 12:40:12;;;;;;;11.57;4.73;;;;;;;;;;5051562;28;20194;-83
2022/03/27 12:42:42;;;;;;;7.93;4.70;;;;;;;;;;5056454;28;20606;-83
2022/03/27 12:45:11;;;;;;;7.20;4.40;;;;;;;;;;5061978;28;20204;-83
2022/03/27 12:47:39;;;;;;;8.43;4.50;;;;;;;;;;5066295;28;20207;-84
2022/03/27 12:50:07;;;;;;;8.13;4.67;;;;;;;;;;5054744;28;20265;-83
2022/03/27 12:52:34;;;;;;;9.87;4.80;;;;;;;;;;5053901;28;20280;-84
2022/03/27 12:55:04;;;;;;;8.20;4.27;;;;;;;;;;5050075;28;20845;-83
2022/03/27 12:57:50;;;;;;;8.03;4.20;;;;;;;;;;5060777;28;20211;-84
2022/03/27 13:00:18;;;;;;;7.57;4.47;;;;;;;;;;5059555;28;20199;-83
2022/03/27 13:02:46;;;;;;;8.77;4.37;;;;;;;;;;5063379;28;20231;-85
2022/03/27 13:05:15;;;;;;;6.80;3.60;;;;;;;;;;5055739;28;20743;-84
2022/03/27 13:07:55;;;;;;;7.30;4.33;;;;;;;;;;5060118;28;20202;-84
2022/03/27 13:10:24;;;;;;;6.83;3.40;;;;;;;;;;5061200;28;20203;-84
2022/03/27 13:12:58;;;;;;;7.70;3.63;;;;;;;;;;5067131;28;20233;-83
2022/03/27 13:15:43;;;;;;;5.97;3.70;;;;;;;;;;5077221;28;20230;-83
2022/03/27 13:18:11;;;;;;;7.40;4.27;;;;;;;;;;5070797;28;20281;-86
2022/03/27 13:20:38;;;;;;;7.07;3.97;;;;;;;;;;5047626;28;20216;-84
2022/03/27 13:23:05;;;;;;;6.07;3.70;;;;;;;;;;5058623;28;20222;-86
2022/03/27 13:25:35;;;;;;;6.17;3.70;;;;;;;;;;5059868;28;20211;-85
2022/03/27 13:28:02;;;;;;;6.90;3.60;;;;;;;;;;5054192;28;20248;-84
2022/03/27 13:30:29;;;;;;;7.33;4.00;;;;;;;;;;5052956;28;20210;-86
2022/03/27 13:32:58;;;;;;;6.83;4.13;;;;;;;;;;5052869;28;20230;-85
2022/03/27 13:35:25;;;;;;;5.80;3.13;;;;;;;;;;5053417;28;20222;-85
2022/03/27 13:37:53;;;;;;;6.63;3.77;;;;;;;;;;5055694;28;20223;-86
2022/03/27 13:40:21;;;;;;;6.00;3.90;;;;;;;;;;5056242;28;20237;-84
2022/03/27 13:42:58;;;;;;;5.77;3.53;;;;;;;;;;5058509;28;20249;-85
2022/03/27 13:45:25;;;;;;;6.57;3.37;;;;;;;;;;5055417;28;20666;-84
2022/03/27 13:47:53;;;;;;;5.57;3.37;;;;;;;;;;5056230;28;20195;-85
2022/03/27 13:50:20;;;;;;;5.43;3.47;;;;;;;;;;5057264;28;20260;-84
2022/03/27 13:52:47;;;;;;;6.97;3.70;;;;;;;;;;5054720;28;20239;-85
2022/03/27 13:55:15;;;;;;;6.13;3.60;;;;;;;;;;5059314;28;21224;-85
2022/03/27 13:57:42;;;;;;;7.27;3.60;;;;;;;;;;5055758;28;20208;-85
2022/03/27 14:00:11;;;;;;;6.67;3.93;;;;;;;;;;5054617;28;20258;-85
2022/03/27 14:02:38;;;;;;;7.77;4.00;;;;;;;;;;5054232;28;20232;-86
2022/03/27 14:05:06;;;;;;;6.20;3.63;;;;;;;;;;5056775;28;20216;-85
2022/03/27 14:07:33;;;;;;;7.47;4.20;;;;;;;;;;5054578;28;20202;-83
2022/03/27 14:10:01;;;;;;;7.03;3.87;;;;;;;;;;5054456;28;20241;-85
2022/03/27 14:12:28;;;;;;;7.20;3.27;;;;;;;;;;5050900;28;20282;-84
2022/03/27 14:14:55;;;;;;;9.20;3.33;;;;;;;;;;5056745;28;20207;-86
2022/03/27 14:17:24;;;;;;;6.70;3.50;;;;;;;;;;5056583;28;20210;-84
2022/03/27 14:19:51;;;;;;;6.70;3.73;;;;;;;;;;5054067;28;20656;-85
2022/03/27 14:22:18;;;;;;;6.13;3.00;;;;;;;;;;5054658;28;20620;-83
2022/03/27 14:24:49;;;;;;;7.53;3.67;;;;;;;;;;5054003;28;20498;-86
2022/03/27 14:27:17;;;;;;;6.10;3.40;;;;;;;;;;5054741;28;20202;-83
2022/03/27 14:29:46;;;;;;;8.47;3.00;;;;;;;;;;5054988;28;20234;-84
2022/03/27 14:32:13;;;;;;;4.37;2.73;;;;;;;;;;5050638;28;20276;-83
2022/03/27 14:34:42;;;;;;;6.73;3.30;;;;;;;;;;5048978;28;20206;-83
2022/03/27 14:37:09;;;;;;;5.80;3.60;;;;;;;;;;5051613;28;20694;-83
2022/03/27 14:39:37;;;;;;;7.27;3.13;;;;;;;;;;5050376;28;20217;-84
2022/03/27 14:42:05;;;;;;;6.17;3.27;;;;;;;;;;5053996;28;20226;-84
2022/03/27 14:44:32;;;;;;;6.03;3.70;;;;;;;;;;5053919;28;20253;-84